createdAt,value
2022-12-14T00:01:54.259Z,34.00
2022-12-14T00:04:22.245Z,34.92
2022-12-14T00:06:49.962Z,35.80
2022-12-14T00:09:18.058Z,34.70
2022-12-14T00:11:45.921Z,34.20
2022-12-14T00:14:13.891Z,34.15
2022-12-14T00:16:41.598Z,33.10
2022-12-14T00:19:11.835Z,33.60
2022-12-14T00:21:39.610Z,34.25
2022-12-14T00:24:07.632Z,34.42
2022-12-14T00:26:35.346Z,32.67
2022-12-14T00:29:03.631Z,34.35
2022-12-14T00:31:32.667Z,33.78
2022-12-14T00:34:01.375Z,34.33
2022-12-14T00:36:31.870Z,33.67
2022-12-14T00:39:00.427Z,34.45
2022-12-14T00:41:28.789Z,32.85
2022-12-14T00:43:57.241Z,34.05
2022-12-14T00:46:25.365Z,42.65
2022-12-14T00:48:53.496Z,36.85
2022-12-14T00:51:22.973Z,36.20
2022-12-14T00:53:51.001Z,37.03
2022-12-14T00:56:18.766Z,34.08
2022-12-14T00:58:53.881Z,32.25
2022-12-14T01:01:22.407Z,34.53
2022-12-14T01:03:50.856Z,33.50
2022-12-14T01:06:23.883Z,32.35
2022-12-14T01:08:51.920Z,38.67
2022-12-14T01:11:19.601Z,36.85
2022-12-14T01:13:49.615Z,44.00
2022-12-14T01:16:17.814Z,37.38
2022-12-14T01:18:45.861Z,42.78
2022-12-14T01:21:19.991Z,41.45
2022-12-14T01:23:51.256Z,36.38
2022-12-14T01:26:20.098Z,34.63
2022-12-14T01:28:52.429Z,35.95
2022-12-14T01:31:23.170Z,36.25
2022-12-14T01:33:51.198Z,36.67
2022-12-14T01:36:21.924Z,37.22
2022-12-14T01:38:54.835Z,37.88
2022-12-14T01:41:39.745Z,36.72
2022-12-14T01:44:10.855Z,37.65
2022-12-14T01:46:41.712Z,37.97
2022-12-14T01:49:28.774Z,36.70
2022-12-14T01:52:12.509Z,38.10
2022-12-14T01:54:52.401Z,39.67
2022-12-14T01:57:26.592Z,38.47
2022-12-14T02:00:00.916Z,37.72
2022-12-14T02:02:33.221Z,39.42
2022-12-14T02:05:02.967Z,40.13
2022-12-14T02:07:32.137Z,42.10
2022-12-14T02:10:04.629Z,39.03
2022-12-14T02:12:48.028Z,39.58
2022-12-14T02:15:16.575Z,38.83
2022-12-14T02:17:47.151Z,38.88
2022-12-14T02:20:16.467Z,39.83
2022-12-14T02:23:05.035Z,43.28
2022-12-14T02:25:42.875Z,40.47
2022-12-14T02:28:22.837Z,40.58
2022-12-14T02:31:39.962Z,40.75
2022-12-14T02:34:14.234Z,42.28
2022-12-14T02:37:04.121Z,42.58
2022-12-14T02:40:13.164Z,42.50
2022-12-14T02:42:59.053Z,40.72
2022-12-14T02:45:37.183Z,41.50
2022-12-14T02:48:14.047Z,41.75
2022-12-14T02:50:54.997Z,40.63
2022-12-14T02:53:36.427Z,40.50
2022-12-14T02:56:09.511Z,41.20
2022-12-14T02:58:41.512Z,41.38
2022-12-14T03:01:14.651Z,39.25
2022-12-14T03:03:43.232Z,38.65
2022-12-14T03:06:26.102Z,39.40
2022-12-14T03:09:05.219Z,39.50
2022-12-14T03:12:01.153Z,39.47
2022-12-14T03:14:50.557Z,39.10
2022-12-14T03:17:24.791Z,38.28
2022-12-14T03:20:06.394Z,40.45
2022-12-14T03:22:39.718Z,38.10
2022-12-14T03:25:16.169Z,37.67
2022-12-14T03:27:53.595Z,41.72
2022-12-14T03:30:44.283Z,40.10
2022-12-14T03:33:17.171Z,41.75
2022-12-14T03:36:02.337Z,41.78
2022-12-14T03:38:33.868Z,40.67
2022-12-14T03:41:14.154Z,41.85
2022-12-14T03:43:56.826Z,40.58
2022-12-14T03:46:51.163Z,41.42
2022-12-14T03:49:40.600Z,40.08
2022-12-14T03:52:21.210Z,41.33
2022-12-14T03:55:11.133Z,42.17
2022-12-14T03:57:45.037Z,42.65
2022-12-14T04:00:24.280Z,40.80
2022-12-14T04:03:07.347Z,40.83
2022-12-14T04:05:47.061Z,40.67
2022-12-14T04:08:40.246Z,40.55
2022-12-14T04:11:37.651Z,39.42
2022-12-14T04:14:38.853Z,41.40
2022-12-14T04:17:32.291Z,40.95
2022-12-14T04:22:46.366Z,39.30
2022-12-14T04:25:41.931Z,40.40
2022-12-14T04:28:53.403Z,41.83
2022-12-14T04:31:25.703Z,40.05
2022-12-14T04:33:58.761Z,40.63
2022-12-14T04:36:33.269Z,37.40
2022-12-14T04:39:08.986Z,41.17
2022-12-14T04:41:43.654Z,42.13
2022-12-14T04:44:21.884Z,41.50
2022-12-14T04:46:53.523Z,46.05
2022-12-14T04:49:32.145Z,44.90
2022-12-14T04:52:06.111Z,43.65
2022-12-14T04:54:45.318Z,43.42
2022-12-14T04:57:34.237Z,42.03
2022-12-14T05:00:02.525Z,42.70
2022-12-14T05:02:57.008Z,42.22
2022-12-14T05:05:33.968Z,41.95
2022-12-14T05:08:11.877Z,36.63
2022-12-14T05:10:44.789Z,42.58
2022-12-14T05:13:19.706Z,38.90
2022-12-14T05:15:50.312Z,38.65
2022-12-14T05:18:18.892Z,41.33
2022-12-14T05:20:47.814Z,40.28
2022-12-14T05:23:16.788Z,39.75
2022-12-14T05:25:44.540Z,38.92
2022-12-14T05:28:17.318Z,39.50
2022-12-14T05:30:47.088Z,39.53
2022-12-14T05:33:21.037Z,69.65
2022-12-14T05:35:48.751Z,65.05
2022-12-14T05:38:16.700Z,60.10
2022-12-14T05:40:44.452Z,66.45
2022-12-14T05:43:13.157Z,57.08
2022-12-14T05:45:40.955Z,51.30
2022-12-14T05:48:08.904Z,44.53
2022-12-14T05:50:36.670Z,39.05
2022-12-14T05:53:04.645Z,39.70
2022-12-14T05:55:32.376Z,37.83
2022-12-14T05:58:00.290Z,38.05
2022-12-14T06:00:27.983Z,36.33
2022-12-14T06:02:56.056Z,35.72
2022-12-14T06:05:24.034Z,33.55
2022-12-14T06:07:51.983Z,35.25
2022-12-14T06:10:19.622Z,35.85
2022-12-14T06:12:47.567Z,36.55
2022-12-14T06:15:15.407Z,34.95
2022-12-14T06:17:47.387Z,38.65
2022-12-14T06:20:15.348Z,37.83
2022-12-14T06:22:47.574Z,40.05
2022-12-14T06:25:16.027Z,38.10
2022-12-14T06:27:43.956Z,39.35
2022-12-14T06:30:12.377Z,38.65
2022-12-14T06:32:40.441Z,39.90
2022-12-14T06:35:08.745Z,41.70
2022-12-14T06:37:36.791Z,45.03
2022-12-14T06:40:05.017Z,43.80
2022-12-14T06:42:32.980Z,44.42
2022-12-14T06:45:00.693Z,48.28
2022-12-14T06:47:28.739Z,49.28
2022-12-14T06:49:56.391Z,57.08
2022-12-14T06:52:26.873Z,59.65
2022-12-14T06:54:55.125Z,54.20
2022-12-14T06:57:23.168Z,55.80
2022-12-14T06:59:51.049Z,52.85
2022-12-14T07:02:19.145Z,48.85
2022-12-14T07:04:47.035Z,56.15
2022-12-14T07:07:15.025Z,59.92
2022-12-14T07:09:42.688Z,59.67
2022-12-14T07:12:10.644Z,63.53
2022-12-14T07:14:38.279Z,64.05
2022-12-14T07:17:06.292Z,64.05
2022-12-14T07:19:34.056Z,65.38
2022-12-14T07:22:04.242Z,65.63
2022-12-14T07:24:32.110Z,63.40
2022-12-14T07:27:00.467Z,65.63
2022-12-14T07:29:34.141Z,62.42
2022-12-14T07:32:03.293Z,58.03
2022-12-14T07:34:31.099Z,56.65
2022-12-14T07:36:59.417Z,50.10
2022-12-14T07:39:27.195Z,54.67
2022-12-14T07:41:55.359Z,53.05
2022-12-14T07:44:23.099Z,56.10
2022-12-14T07:46:51.163Z,56.03
2022-12-14T07:49:18.928Z,55.42
2022-12-14T07:51:47.068Z,58.08
2022-12-14T07:54:15.015Z,60.25
2022-12-14T07:56:44.737Z,56.13
2022-12-14T07:59:15.408Z,58.35
2022-12-14T08:01:43.956Z,58.83
2022-12-14T08:04:15.267Z,51.80
2022-12-14T08:06:43.699Z,54.72
2022-12-14T08:09:12.798Z,56.20
2022-12-14T08:11:41.215Z,59.05
2022-12-14T08:14:17.416Z,54.60
2022-12-14T08:16:47.006Z,50.95
2022-12-14T08:19:15.320Z,51.38
2022-12-14T08:21:45.398Z,52.35
2022-12-14T08:24:14.625Z,39.95
2022-12-14T08:26:42.812Z,35.08
2022-12-14T08:29:15.467Z,33.53
2022-12-14T08:31:44.083Z,34.55
2022-12-14T08:34:12.049Z,39.53
2022-12-14T08:53:54.655Z,53.17
2022-12-14T08:56:25.570Z,51.97
2022-12-14T08:58:53.843Z,50.10
2022-12-14T09:01:30.349Z,49.65
2022-12-14T09:04:07.852Z,52.20
2022-12-14T09:06:38.597Z,52.45
2022-12-14T09:09:15.538Z,51.10
2022-12-14T09:11:45.506Z,49.58
2022-12-14T09:14:13.668Z,47.90
2022-12-14T09:16:41.963Z,50.30
2022-12-14T09:19:09.851Z,46.90
2022-12-14T09:21:38.560Z,45.60
2022-12-14T09:24:07.142Z,43.35
2022-12-14T09:26:35.176Z,45.75
2022-12-14T09:29:02.999Z,45.75
2022-12-14T09:31:31.022Z,43.53
2022-12-14T09:33:59.636Z,43.80
2022-12-14T09:36:28.930Z,41.45
2022-12-14T09:38:57.945Z,42.65
2022-12-14T09:41:35.392Z,43.95
2022-12-14T09:44:38.638Z,42.83
2022-12-14T09:47:10.833Z,45.13
2022-12-14T09:49:47.449Z,43.42
2022-12-14T09:52:39.084Z,39.63
2022-12-14T09:55:39.267Z,39.05
2022-12-14T09:58:13.964Z,37.50
2022-12-14T10:01:11.279Z,39.85
2022-12-14T10:04:06.505Z,36.33
2022-12-14T10:06:39.445Z,38.53
2022-12-14T10:09:30.442Z,39.35
2022-12-14T10:12:32.501Z,37.05
2022-12-14T10:15:19.228Z,37.80
2022-12-14T10:18:01.938Z,39.08
2022-12-14T10:20:42.519Z,37.70
2022-12-14T10:23:21.098Z,38.78
2022-12-14T10:26:07.977Z,37.67
2022-12-14T10:28:38.879Z,37.85
2022-12-14T10:31:12.040Z,35.65
2022-12-14T10:33:45.021Z,36.70
2022-12-14T10:36:30.784Z,36.22
2022-12-14T10:39:01.908Z,37.45
2022-12-14T10:42:01.562Z,36.42
2022-12-14T10:44:53.474Z,35.75
2022-12-14T10:47:43.808Z,36.22
2022-12-14T10:50:20.988Z,37.42
2022-12-14T10:52:54.292Z,33.10
2022-12-14T10:55:33.676Z,26.35
2022-12-14T10:58:01.655Z,36.88
2022-12-14T11:00:29.449Z,34.85
2022-12-14T11:02:58.947Z,38.10
2022-12-14T11:05:36.936Z,38.70
2022-12-14T11:08:08.005Z,33.47
2022-12-14T11:10:39.681Z,35.92
2022-12-14T11:13:13.838Z,35.92
2022-12-14T11:18:17.532Z,35.92
2022-12-14T11:21:00.353Z,36.22
2022-12-14T11:23:38.458Z,37.73
2022-12-14T11:26:20.861Z,37.13
2022-12-14T11:28:58.675Z,36.88
2022-12-14T11:31:40.387Z,37.58
2022-12-14T11:34:41.366Z,37.40
2022-12-14T11:37:20.891Z,36.70
2022-12-14T11:39:59.919Z,36.08
2022-12-14T11:42:28.338Z,35.05
2022-12-14T11:45:36.252Z,33.83
2022-12-14T11:48:16.046Z,33.60
2022-12-14T11:50:46.028Z,32.78
2022-12-14T11:53:17.388Z,34.05
2022-12-14T11:55:52.442Z,34.17
2022-12-14T11:58:32.328Z,34.72
2022-12-14T12:01:05.083Z,33.85
2022-12-14T12:03:38.089Z,34.78
2022-12-14T12:06:11.106Z,35.70
2022-12-14T12:08:41.188Z,32.37
2022-12-14T12:11:22.701Z,32.30
2022-12-14T12:14:03.639Z,31.83
2022-12-14T12:16:33.197Z,28.10
2022-12-14T12:19:05.201Z,24.17
2022-12-14T12:21:45.174Z,27.38
2022-12-14T12:24:38.775Z,25.90
2022-12-14T12:27:16.596Z,27.73
2022-12-14T12:30:16.099Z,18.65
2022-12-14T12:32:50.417Z,27.45
2022-12-14T12:35:40.001Z,26.42
2022-12-14T12:38:43.460Z,26.55
2022-12-14T12:41:44.687Z,27.05
2022-12-14T12:44:30.084Z,25.70
2022-12-14T12:47:29.931Z,29.17
2022-12-14T12:50:14.227Z,26.67
2022-12-14T12:53:28.835Z,26.88
2022-12-14T12:56:11.520Z,30.15
2022-12-14T12:58:40.915Z,30.10
2022-12-14T13:01:34.601Z,30.33
2022-12-14T13:04:11.536Z,30.08
2022-12-14T13:06:41.072Z,29.15
2022-12-14T13:09:50.064Z,28.80
2022-12-14T13:12:36.563Z,30.23
2022-12-14T13:15:14.082Z,30.67
2022-12-14T13:17:54.410Z,32.28
2022-12-14T13:20:28.382Z,32.25
2022-12-14T13:23:05.741Z,33.90
2022-12-14T13:26:28.103Z,31.55
2022-12-14T13:29:39.389Z,34.78
2022-12-14T13:32:18.692Z,33.72
2022-12-14T13:35:05.700Z,35.42
2022-12-14T13:37:51.237Z,34.47
2022-12-14T13:40:37.780Z,34.78
2022-12-14T13:43:16.002Z,35.75
2022-12-14T13:45:47.789Z,32.30
2022-12-14T13:51:42.085Z,35.90
2022-12-14T13:54:26.412Z,37.20
2022-12-14T13:57:06.508Z,36.15
2022-12-14T13:59:45.073Z,35.03
2022-12-14T14:02:39.584Z,35.15
2022-12-14T14:05:18.824Z,35.53
2022-12-14T14:07:53.780Z,36.28
2022-12-14T14:10:34.561Z,35.15
2022-12-14T14:13:27.473Z,38.22
2022-12-14T14:16:27.994Z,36.40
2022-12-14T14:19:18.713Z,37.67
2022-12-14T14:22:26.456Z,37.47
2022-12-14T14:26:02.499Z,36.00
2022-12-14T14:28:31.290Z,35.45
2022-12-14T14:30:59.927Z,36.90
2022-12-14T14:33:45.510Z,37.25
2022-12-14T14:36:33.431Z,36.70
2022-12-14T14:39:18.940Z,36.90
2022-12-14T14:41:54.526Z,39.72
2022-12-14T14:44:37.748Z,37.63
2022-12-14T14:47:15.790Z,40.75
2022-12-14T14:49:44.429Z,35.83
2022-12-14T14:52:39.697Z,33.63
2022-12-14T14:58:37.130Z,33.63
2022-12-14T15:01:08.066Z,34.40
2022-12-14T15:04:15.714Z,34.47
2022-12-14T15:06:51.184Z,35.30
2022-12-14T15:09:30.686Z,35.45
2022-12-14T15:12:19.091Z,37.60
2022-12-14T15:14:53.778Z,38.30
2022-12-14T15:17:23.948Z,36.42
2022-12-14T15:19:55.905Z,36.72
2022-12-14T15:22:30.556Z,33.55
2022-12-14T15:25:01.439Z,32.15
2022-12-14T15:27:38.113Z,34.08
2022-12-14T15:30:12.400Z,35.10
2022-12-14T15:32:57.299Z,35.58
2022-12-14T15:35:34.389Z,35.38
2022-12-14T15:38:07.888Z,34.33
2022-12-14T15:40:36.104Z,35.05
2022-12-14T15:43:17.472Z,33.75
2022-12-14T15:45:48.718Z,34.38
2022-12-14T15:48:31.116Z,33.20
2022-12-14T15:51:05.201Z,33.35
2022-12-14T15:53:51.580Z,32.22
2022-12-14T15:56:30.497Z,24.98
2022-12-14T15:59:13.450Z,32.28
2022-12-14T16:01:47.386Z,33.97
2022-12-14T16:04:22.903Z,34.28
2022-12-14T16:07:26.935Z,36.25
2022-12-14T16:10:02.037Z,34.58
2022-12-14T16:12:45.441Z,36.28
2022-12-14T16:15:27.545Z,35.58
2022-12-14T16:18:02.711Z,33.95
2022-12-14T16:20:34.025Z,37.15
2022-12-14T16:23:13.685Z,38.55
2022-12-14T16:26:02.915Z,35.25
2022-12-14T16:28:37.798Z,35.63
2022-12-14T16:31:19.981Z,34.80
2022-12-14T16:34:06.064Z,35.10
2022-12-14T16:36:36.870Z,28.95
2022-12-14T16:39:15.207Z,31.75
2022-12-14T16:41:52.060Z,34.65
2022-12-14T16:44:23.997Z,34.45
2022-12-14T16:47:11.941Z,31.27
2022-12-14T16:49:42.081Z,33.63
2022-12-14T16:52:26.940Z,32.22
2022-12-14T16:55:17.084Z,32.83
2022-12-14T16:57:58.828Z,33.40
2022-12-14T17:00:30.031Z,34.10
2022-12-14T17:03:03.962Z,34.88
2022-12-14T17:05:39.789Z,32.28
2022-12-14T17:08:08.684Z,27.95
2022-12-14T17:10:38.835Z,34.92
2022-12-14T17:13:06.573Z,30.67
2022-12-14T17:15:35.730Z,34.10
2022-12-14T17:18:07.176Z,32.65
2022-12-14T17:20:39.426Z,31.98
2022-12-14T17:23:14.872Z,35.05
2022-12-14T17:25:46.305Z,32.80
2022-12-14T17:28:34.799Z,33.35
2022-12-14T17:31:03.509Z,34.53
2022-12-14T17:33:32.408Z,30.77
2022-12-14T17:36:00.717Z,33.65
2022-12-14T17:38:28.425Z,30.17
2022-12-14T17:40:56.663Z,27.90
2022-12-14T17:43:27.658Z,31.00
2022-12-14T17:45:56.668Z,31.10
2022-12-14T17:48:24.457Z,30.20
2022-12-14T17:50:52.442Z,30.25
2022-12-14T17:53:28.040Z,28.92
2022-12-14T17:55:56.317Z,30.52
2022-12-14T17:58:24.090Z,29.25
2022-12-14T18:01:01.463Z,31.30
2022-12-14T18:03:36.802Z,31.65
2022-12-14T18:06:05.564Z,29.42
2022-12-14T18:08:33.391Z,27.38
2022-12-14T18:11:10.224Z,29.25
2022-12-14T18:13:42.184Z,22.38
2022-12-14T18:16:15.973Z,32.72
2022-12-14T18:18:45.950Z,32.13
2022-12-14T18:21:18.401Z,29.60
2022-12-14T18:23:47.667Z,31.65
2022-12-14T18:26:22.187Z,23.60
2022-12-14T18:28:52.036Z,32.22
2022-12-14T18:31:27.222Z,29.60
2022-12-14T18:33:55.480Z,28.20
2022-12-14T18:36:23.847Z,30.67
2022-12-14T18:38:52.202Z,31.73
2022-12-14T18:41:24.244Z,31.42
2022-12-14T18:43:52.670Z,28.83
2022-12-14T18:46:20.839Z,27.90
2022-12-14T18:48:48.614Z,31.15
2022-12-14T18:51:26.710Z,30.67
2022-12-14T18:53:56.657Z,27.42
2022-12-14T18:56:28.114Z,25.42
2022-12-14T18:58:56.656Z,30.58
2022-12-14T19:01:25.667Z,28.60
2022-12-14T19:03:53.626Z,29.90
2022-12-14T19:09:14.260Z,26.10
2022-12-14T19:11:42.608Z,25.98
2022-12-14T19:14:11.273Z,26.45
2022-12-14T19:16:39.748Z,29.80
2022-12-14T19:19:07.466Z,30.20
2022-12-14T19:21:35.540Z,30.88
2022-12-14T19:24:03.422Z,29.50
2022-12-14T19:26:31.785Z,28.60
2022-12-14T19:28:59.557Z,30.08
2022-12-14T19:31:27.625Z,26.38
2022-12-14T19:33:55.931Z,30.08
2022-12-14T19:36:24.682Z,31.10
2022-12-14T19:38:52.567Z,27.92
2022-12-14T19:41:21.493Z,28.40
2022-12-14T19:43:49.609Z,26.45
2022-12-14T19:46:18.325Z,25.15
2022-12-14T19:48:46.624Z,29.48
2022-12-14T19:51:14.962Z,30.33
2022-12-14T19:53:44.877Z,28.17
2022-12-14T19:56:16.937Z,28.67
2022-12-14T19:58:45.148Z,29.27
2022-12-14T20:01:16.441Z,30.38
2022-12-14T20:03:44.657Z,28.27
2022-12-14T20:06:12.891Z,28.10
2022-12-14T20:08:40.682Z,30.58
2022-12-14T20:11:11.141Z,27.13
2022-12-14T20:13:39.250Z,31.85
2022-12-14T20:16:07.595Z,28.75
2022-12-14T20:18:35.375Z,26.00
2022-12-14T20:21:07.066Z,28.85
2022-12-14T20:23:36.640Z,31.33
2022-12-14T20:26:10.862Z,26.67
2022-12-14T20:28:38.807Z,26.00
2022-12-14T20:31:08.753Z,29.40
2022-12-14T20:33:37.304Z,30.30
2022-12-14T20:36:05.956Z,30.45
2022-12-14T20:38:33.862Z,31.75
2022-12-14T20:41:11.033Z,21.33
2022-12-14T20:43:41.590Z,29.40
2022-12-14T20:46:43.517Z,29.35
2022-12-14T20:49:22.586Z,31.30
2022-12-14T20:51:50.668Z,29.95
2022-12-14T20:54:19.905Z,31.95
2022-12-14T20:56:49.628Z,28.45
2022-12-14T20:59:17.886Z,25.58
2022-12-14T21:01:51.677Z,29.67
2022-12-14T21:04:21.593Z,25.25
2022-12-14T21:06:49.701Z,31.52
2022-12-14T21:09:17.483Z,28.50
2022-12-14T21:12:08.639Z,32.83
2022-12-14T21:14:42.570Z,28.48
2022-12-14T21:17:11.351Z,32.08
2022-12-14T21:19:39.714Z,30.23
2022-12-14T21:22:11.368Z,28.60
2022-12-14T21:27:30.233Z,29.65
2022-12-14T21:29:58.090Z,29.20
2022-12-14T21:32:26.612Z,30.73
2022-12-14T21:34:54.401Z,29.00
2022-12-14T21:37:23.345Z,28.80
2022-12-14T21:39:54.996Z,29.50
2022-12-14T21:42:24.820Z,32.38
2022-12-14T21:44:53.742Z,29.52
2022-12-14T21:47:25.930Z,30.48
2022-12-14T21:49:54.459Z,31.55
2022-12-14T21:52:25.354Z,30.75
2022-12-14T21:54:53.308Z,30.83
2022-12-14T21:57:42.580Z,29.60
2022-12-14T22:00:11.537Z,30.67
2022-12-14T22:02:42.949Z,25.70
2022-12-14T22:05:11.586Z,30.17
2022-12-14T22:07:39.659Z,30.77
2022-12-14T22:10:07.769Z,28.95
2022-12-14T22:12:35.824Z,28.15
2022-12-14T22:15:03.889Z,28.15
2022-12-14T22:17:31.909Z,29.02
2022-12-14T22:19:59.840Z,30.52
2022-12-14T22:22:27.813Z,30.75
2022-12-14T22:24:55.566Z,29.00
2022-12-14T22:27:23.557Z,32.70
2022-12-14T22:29:51.313Z,31.38
2022-12-14T22:32:19.332Z,30.10
2022-12-14T22:34:47.148Z,30.85
2022-12-14T22:37:16.816Z,32.50
2022-12-14T22:39:48.146Z,32.83
2022-12-14T22:42:16.672Z,28.42
2022-12-14T22:44:44.459Z,32.05
2022-12-14T22:47:12.520Z,29.60
2022-12-14T22:49:40.273Z,30.65
2022-12-14T22:52:08.293Z,30.73
2022-12-14T22:54:37.989Z,30.92
2022-12-14T22:57:12.205Z,31.58
2022-12-14T22:59:48.491Z,32.20
2022-12-14T23:02:16.772Z,29.80
2022-12-14T23:04:44.949Z,30.40
2022-12-14T23:07:12.983Z,28.58
2022-12-14T23:09:59.132Z,30.33
2022-12-14T23:12:45.748Z,30.70
2022-12-14T23:15:32.210Z,31.10
2022-12-14T23:18:23.821Z,29.50
2022-12-14T23:21:10.527Z,30.27
2022-12-14T23:23:59.033Z,31.08
2022-12-14T23:26:45.299Z,31.23
2022-12-14T23:29:32.229Z,29.92
2022-12-14T23:32:18.512Z,31.52
2022-12-14T23:35:05.174Z,29.75
2022-12-14T23:37:51.659Z,30.55
2022-12-14T23:40:38.246Z,30.88
2022-12-14T23:43:33.070Z,30.20
2022-12-14T23:46:21.012Z,31.42
2022-12-14T23:49:13.543Z,30.88
2022-12-14T23:52:02.539Z,30.00
2022-12-14T23:54:49.031Z,30.35
2022-12-14T23:57:35.965Z,28.17
